sensor_id;sensor_type;location;lat;lon;timestamp;P1;durP1;ratioP1;P2;durP2;ratioP2
39078;SDS011;24829;49.208;12.080;2023-10-19T00:01:57;42.60;;;29.38;;
39078;SDS011;24829;49.208;12.080;2023-10-19T00:04:27;49.90;;;29.00;;
39078;SDS011;24829;49.208;12.080;2023-10-19T00:06:57;50.00;;;30.30;;
39078;SDS011;24829;49.208;12.080;2023-10-19T00:09:23;49.97;;;30.17;;
39078;SDS011;24829;49.208;12.080;2023-10-19T00:11:50;45.08;;;29.90;;
39078;SDS011;24829;49.208;12.080;2023-10-19T00:14:17;49.85;;;30.30;;
39078;SDS011;24829;49.208;12.080;2023-10-19T00:16:43;50.13;;;31.35;;
39078;SDS011;24829;49.208;12.080;2023-10-19T00:19:16;46.65;;;29.63;;
39078;SDS011;24829;49.208;12.080;2023-10-19T00:21:44;49.22;;;30.42;;
39078;SDS011;24829;49.208;12.080;2023-10-19T00:24:19;49.40;;;31.92;;
39078;SDS011;24829;49.208;12.080;2023-10-19T00:26:47;47.22;;;29.88;;
39078;SDS011;24829;49.208;12.080;2023-10-19T00:29:13;50.13;;;31.13;;
39078;SDS011;24829;49.208;12.080;2023-10-19T00:31:55;46.13;;;29.67;;
39078;SDS011;24829;49.208;12.080;2023-10-19T00:34:22;49.50;;;32.10;;
39078;SDS011;24829;49.208;12.080;2023-10-19T00:36:49;50.22;;;31.90;;
39078;SDS011;24829;49.208;12.080;2023-10-19T00:39:15;50.95;;;32.30;;
39078;SDS011;24829;49.208;12.080;2023-10-19T00:41:46;47.13;;;30.83;;
39078;SDS011;24829;49.208;12.080;2023-10-19T00:44:12;45.03;;;29.25;;
39078;SDS011;24829;49.208;12.080;2023-10-19T00:46:48;50.50;;;30.05;;
39078;SDS011;24829;49.208;12.080;2023-10-19T00:49:28;45.35;;;30.23;;
39078;SDS011;24829;49.208;12.080;2023-10-19T00:51:55;47.10;;;29.65;;
39078;SDS011;24829;49.208;12.080;2023-10-19T00:54:36;47.10;;;30.67;;
39078;SDS011;24829;49.208;12.080;2023-10-19T00:57:23;48.80;;;31.15;;
39078;SDS011;24829;49.208;12.080;2023-10-19T01:00:00;45.70;;;30.55;;
39078;SDS011;24829;49.208;12.080;2023-10-19T01:02:40;49.13;;;30.58;;
39078;SDS011;24829;49.208;12.080;2023-10-19T01:05:10;50.67;;;31.10;;
39078;SDS011;24829;49.208;12.080;2023-10-19T01:07:38;50.83;;;31.27;;
39078;SDS011;24829;49.208;12.080;2023-10-19T01:10:05;46.85;;;30.40;;
39078;SDS011;24829;49.208;12.080;2023-10-19T01:12:37;53.47;;;31.40;;
39078;SDS011;24829;49.208;12.080;2023-10-19T01:17:41;53.28;;;33.75;;
39078;SDS011;24829;49.208;12.080;2023-10-19T01:20:16;49.65;;;32.83;;
39078;SDS011;24829;49.208;12.080;2023-10-19T01:23:05;49.03;;;31.90;;
39078;SDS011;24829;49.208;12.080;2023-10-19T01:25:54;57.47;;;34.97;;
39078;SDS011;24829;49.208;12.080;2023-10-19T01:28:28;49.88;;;30.25;;
39078;SDS011;24829;49.208;12.080;2023-10-19T01:31:23;52.03;;;32.28;;
39078;SDS011;24829;49.208;12.080;2023-10-19T01:33:54;57.30;;;34.78;;
39078;SDS011;24829;49.208;12.080;2023-10-19T01:36:24;57.78;;;36.08;;
39078;SDS011;24829;49.208;12.080;2023-10-19T01:38:50;51.83;;;33.63;;
39078;SDS011;24829;49.208;12.080;2023-10-19T01:41:20;55.03;;;35.10;;
39078;SDS011;24829;49.208;12.080;2023-10-19T01:43:48;53.80;;;34.40;;
39078;SDS011;24829;49.208;12.080;2023-10-19T01:46:16;55.03;;;35.22;;
39078;SDS011;24829;49.208;12.080;2023-10-19T01:48:49;56.90;;;33.85;;
39078;SDS011;24829;49.208;12.080;2023-10-19T01:51:20;54.22;;;33.42;;
39078;SDS011;24829;49.208;12.080;2023-10-19T01:53:51;50.70;;;32.93;;
39078;SDS011;24829;49.208;12.080;2023-10-19T01:56:18;46.60;;;31.15;;
39078;SDS011;24829;49.208;12.080;2023-10-19T01:58:45;50.35;;;31.38;;
39078;SDS011;24829;49.208;12.080;2023-10-19T02:01:12;47.47;;;32.75;;
39078;SDS011;24829;49.208;12.080;2023-10-19T02:03:38;55.08;;;34.80;;
39078;SDS011;24829;49.208;12.080;2023-10-19T02:06:07;49.42;;;31.10;;
39078;SDS011;24829;49.208;12.080;2023-10-19T02:08:54;49.05;;;32.17;;
39078;SDS011;24829;49.208;12.080;2023-10-19T02:11:24;49.67;;;32.63;;
39078;SDS011;24829;49.208;12.080;2023-10-19T02:13:53;52.05;;;33.92;;
39078;SDS011;24829;49.208;12.080;2023-10-19T02:16:20;51.20;;;32.92;;
39078;SDS011;24829;49.208;12.080;2023-10-19T02:18:54;51.47;;;33.22;;
39078;SDS011;24829;49.208;12.080;2023-10-19T02:21:20;52.35;;;34.22;;
39078;SDS011;24829;49.208;12.080;2023-10-19T02:23:52;51.58;;;34.55;;
39078;SDS011;24829;49.208;12.080;2023-10-19T02:26:18;52.65;;;34.17;;
39078;SDS011;24829;49.208;12.080;2023-10-19T02:28:55;53.45;;;34.17;;
39078;SDS011;24829;49.208;12.080;2023-10-19T02:31:21;52.55;;;33.25;;
39078;SDS011;24829;49.208;12.080;2023-10-19T02:33:52;53.65;;;34.92;;
39078;SDS011;24829;49.208;12.080;2023-10-19T02:36:24;51.25;;;35.00;;
39078;SDS011;24829;49.208;12.080;2023-10-19T02:38:53;60.95;;;35.75;;
39078;SDS011;24829;49.208;12.080;2023-10-19T02:41:20;58.00;;;37.67;;
39078;SDS011;24829;49.208;12.080;2023-10-19T02:43:46;59.83;;;37.50;;
39078;SDS011;24829;49.208;12.080;2023-10-19T02:46:16;53.08;;;36.80;;
39078;SDS011;24829;49.208;12.080;2023-10-19T02:48:43;49.97;;;33.70;;
39078;SDS011;24829;49.208;12.080;2023-10-19T02:51:10;56.03;;;34.20;;
39078;SDS011;24829;49.208;12.080;2023-10-19T02:53:39;47.67;;;31.73;;
39078;SDS011;24829;49.208;12.080;2023-10-19T02:56:12;49.83;;;32.65;;
39078;SDS011;24829;49.208;12.080;2023-10-19T02:58:41;47.92;;;32.28;;
39078;SDS011;24829;49.208;12.080;2023-10-19T03:01:14;46.75;;;31.98;;
39078;SDS011;24829;49.208;12.080;2023-10-19T03:03:42;46.47;;;32.13;;
39078;SDS011;24829;49.208;12.080;2023-10-19T03:06:08;54.03;;;34.30;;
39078;SDS011;24829;49.208;12.080;2023-10-19T03:08:35;48.53;;;32.47;;
39078;SDS011;24829;49.208;12.080;2023-10-19T03:11:00;51.17;;;31.70;;
39078;SDS011;24829;49.208;12.080;2023-10-19T03:13:29;47.47;;;31.15;;
39078;SDS011;24829;49.208;12.080;2023-10-19T03:15:57;49.95;;;32.95;;
39078;SDS011;24829;49.208;12.080;2023-10-19T03:18:24;52.53;;;34.58;;
39078;SDS011;24829;49.208;12.080;2023-10-19T03:20:51;51.42;;;33.97;;
39078;SDS011;24829;49.208;12.080;2023-10-19T03:23:16;55.45;;;34.28;;
39078;SDS011;24829;49.208;12.080;2023-10-19T03:25:42;54.92;;;35.55;;
39078;SDS011;24829;49.208;12.080;2023-10-19T03:28:26;49.83;;;34.13;;
39078;SDS011;24829;49.208;12.080;2023-10-19T03:30:51;53.50;;;34.97;;
39078;SDS011;24829;49.208;12.080;2023-10-19T03:33:20;52.55;;;34.30;;
39078;SDS011;24829;49.208;12.080;2023-10-19T03:35:48;50.85;;;33.78;;
39078;SDS011;24829;49.208;12.080;2023-10-19T03:38:16;53.42;;;33.95;;
39078;SDS011;24829;49.208;12.080;2023-10-19T03:40:44;51.03;;;33.80;;
39078;SDS011;24829;49.208;12.080;2023-10-19T03:43:17;53.13;;;34.40;;
39078;SDS011;24829;49.208;12.080;2023-10-19T03:45:46;56.55;;;34.55;;
39078;SDS011;24829;49.208;12.080;2023-10-19T03:48:17;52.60;;;35.10;;
39078;SDS011;24829;49.208;12.080;2023-10-19T03:50:52;58.58;;;37.78;;
39078;SDS011;24829;49.208;12.080;2023-10-19T03:53:21;53.00;;;35.95;;
39078;SDS011;24829;49.208;12.080;2023-10-19T03:55:47;52.80;;;34.15;;
39078;SDS011;24829;49.208;12.080;2023-10-19T03:58:15;53.08;;;36.50;;
39078;SDS011;24829;49.208;12.080;2023-10-19T04:00:41;63.38;;;37.55;;
39078;SDS011;24829;49.208;12.080;2023-10-19T04:03:07;59.47;;;39.17;;
39078;SDS011;24829;49.208;12.080;2023-10-19T04:05:32;59.75;;;40.15;;
39078;SDS011;24829;49.208;12.080;2023-10-19T04:08:03;62.33;;;40.90;;
39078;SDS011;24829;49.208;12.080;2023-10-19T04:10:39;56.33;;;36.28;;
39078;SDS011;24829;49.208;12.080;2023-10-19T04:13:09;65.82;;;39.80;;
39078;SDS011;24829;49.208;12.080;2023-10-19T04:15:42;57.83;;;39.67;;
39078;SDS011;24829;49.208;12.080;2023-10-19T04:18:07;61.40;;;38.97;;
39078;SDS011;24829;49.208;12.080;2023-10-19T04:20:36;61.38;;;39.35;;
39078;SDS011;24829;49.208;12.080;2023-10-19T04:25:39;56.33;;;35.50;;
39078;SDS011;24829;49.208;12.080;2023-10-19T04:28:04;57.00;;;35.75;;
39078;SDS011;24829;49.208;12.080;2023-10-19T04:30:30;56.70;;;34.58;;
39078;SDS011;24829;49.208;12.080;2023-10-19T04:32:58;95.70;;;53.50;;
39078;SDS011;24829;49.208;12.080;2023-10-19T04:35:24;119.85;;;60.30;;
39078;SDS011;24829;49.208;12.080;2023-10-19T04:37:54;174.55;;;93.10;;
39078;SDS011;24829;49.208;12.080;2023-10-19T04:40:21;158.27;;;84.35;;
39078;SDS011;24829;49.208;12.080;2023-10-19T04:42:48;95.57;;;52.20;;
39078;SDS011;24829;49.208;12.080;2023-10-19T04:45:15;79.20;;;46.38;;
39078;SDS011;24829;49.208;12.080;2023-10-19T04:47:41;88.93;;;48.03;;
39078;SDS011;24829;49.208;12.080;2023-10-19T04:50:07;64.63;;;38.03;;
39078;SDS011;24829;49.208;12.080;2023-10-19T04:52:35;61.83;;;38.53;;
39078;SDS011;24829;49.208;12.080;2023-10-19T04:55:02;74.15;;;43.40;;
39078;SDS011;24829;49.208;12.080;2023-10-19T04:57:28;68.20;;;42.30;;
39078;SDS011;24829;49.208;12.080;2023-10-19T04:59:53;56.92;;;37.17;;
39078;SDS011;24829;49.208;12.080;2023-10-19T05:02:20;57.95;;;37.42;;
39078;SDS011;24829;49.208;12.080;2023-10-19T05:04:46;58.65;;;37.45;;
39078;SDS011;24829;49.208;12.080;2023-10-19T05:07:11;57.17;;;36.92;;
39078;SDS011;24829;49.208;12.080;2023-10-19T05:09:39;60.92;;;38.53;;
39078;SDS011;24829;49.208;12.080;2023-10-19T05:12:06;63.25;;;39.72;;
39078;SDS011;24829;49.208;12.080;2023-10-19T05:14:34;63.80;;;38.47;;
39078;SDS011;24829;49.208;12.080;2023-10-19T05:17:03;62.53;;;40.72;;
39078;SDS011;24829;49.208;12.080;2023-10-19T05:19:32;56.72;;;36.75;;
39078;SDS011;24829;49.208;12.080;2023-10-19T05:22:02;59.33;;;37.67;;
39078;SDS011;24829;49.208;12.080;2023-10-19T05:24:30;57.13;;;38.10;;
39078;SDS011;24829;49.208;12.080;2023-10-19T05:26:57;64.25;;;38.33;;
39078;SDS011;24829;49.208;12.080;2023-10-19T05:29:23;61.88;;;37.83;;
39078;SDS011;24829;49.208;12.080;2023-10-19T05:31:51;63.58;;;40.15;;
39078;SDS011;24829;49.208;12.080;2023-10-19T05:34:25;62.78;;;40.90;;
39078;SDS011;24829;49.208;12.080;2023-10-19T05:36:56;63.47;;;39.92;;
39078;SDS011;24829;49.208;12.080;2023-10-19T05:39:24;57.47;;;38.00;;
39078;SDS011;24829;49.208;12.080;2023-10-19T05:41:53;59.50;;;39.33;;
39078;SDS011;24829;49.208;12.080;2023-10-19T05:44:19;63.88;;;41.00;;
39078;SDS011;24829;49.208;12.080;2023-10-19T05:46:45;65.30;;;41.45;;
39078;SDS011;24829;49.208;12.080;2023-10-19T05:49:11;81.25;;;47.03;;
39078;SDS011;24829;49.208;12.080;2023-10-19T05:51:37;81.07;;;45.80;;
39078;SDS011;24829;49.208;12.080;2023-10-19T05:54:03;72.47;;;40.38;;
39078;SDS011;24829;49.208;12.080;2023-10-19T05:56:29;105.93;;;54.10;;
39078;SDS011;24829;49.208;12.080;2023-10-19T05:58:55;102.15;;;51.28;;
39078;SDS011;24829;49.208;12.080;2023-10-19T06:01:21;85.70;;;48.03;;
39078;SDS011;24829;49.208;12.080;2023-10-19T06:03:47;58.58;;;38.55;;
39078;SDS011;24829;49.208;12.080;2023-10-19T06:06:13;64.57;;;38.35;;
39078;SDS011;24829;49.208;12.080;2023-10-19T06:08:40;63.65;;;40.58;;
39078;SDS011;24829;49.208;12.080;2023-10-19T06:11:06;62.65;;;39.70;;
39078;SDS011;24829;49.208;12.080;2023-10-19T06:13:31;68.40;;;44.30;;
39078;SDS011;24829;49.208;12.080;2023-10-19T06:15:57;68.78;;;43.97;;
39078;SDS011;24829;49.208;12.080;2023-10-19T06:18:22;66.65;;;42.90;;
39078;SDS011;24829;49.208;12.080;2023-10-19T06:20:48;58.80;;;37.17;;
39078;SDS011;24829;49.208;12.080;2023-10-19T06:23:15;47.15;;;32.72;;
39078;SDS011;24829;49.208;12.080;2023-10-19T06:25:41;48.15;;;32.17;;
39078;SDS011;24829;49.208;12.080;2023-10-19T06:28:08;49.80;;;33.08;;
39078;SDS011;24829;49.208;12.080;2023-10-19T06:30:34;53.05;;;35.72;;
39078;SDS011;24829;49.208;12.080;2023-10-19T06:33:00;46.95;;;32.72;;
39078;SDS011;24829;49.208;12.080;2023-10-19T06:35:26;53.25;;;34.25;;
39078;SDS011;24829;49.208;12.080;2023-10-19T06:37:53;54.25;;;33.70;;
39078;SDS011;24829;49.208;12.080;2023-10-19T06:40:23;49.17;;;32.38;;
39078;SDS011;24829;49.208;12.080;2023-10-19T06:42:50;50.00;;;34.38;;
39078;SDS011;24829;49.208;12.080;2023-10-19T06:45:16;53.45;;;33.28;;
39078;SDS011;24829;49.208;12.080;2023-10-19T06:47:44;45.22;;;31.45;;
39078;SDS011;24829;49.208;12.080;2023-10-19T06:50:14;47.22;;;32.63;;
39078;SDS011;24829;49.208;12.080;2023-10-19T06:52:43;42.30;;;30.58;;
39078;SDS011;24829;49.208;12.080;2023-10-19T06:55:10;42.88;;;29.23;;
39078;SDS011;24829;49.208;12.080;2023-10-19T06:57:40;41.22;;;30.83;;
39078;SDS011;24829;49.208;12.080;2023-10-19T07:00:08;48.85;;;33.15;;
39078;SDS011;24829;49.208;12.080;2023-10-19T07:02:54;44.85;;;30.60;;
39078;SDS011;24829;49.208;12.080;2023-10-19T07:05:21;46.28;;;31.33;;
39078;SDS011;24829;49.208;12.080;2023-10-19T07:07:49;45.25;;;29.05;;
39078;SDS011;24829;49.208;12.080;2023-10-19T07:10:17;42.75;;;28.23;;
39078;SDS011;24829;49.208;12.080;2023-10-19T07:12:44;38.55;;;27.50;;
39078;SDS011;24829;49.208;12.080;2023-10-19T07:15:11;35.15;;;27.85;;
39078;SDS011;24829;49.208;12.080;2023-10-19T07:17:43;37.15;;;26.50;;
39078;SDS011;24829;49.208;12.080;2023-10-19T07:20:14;34.03;;;24.98;;
39078;SDS011;24829;49.208;12.080;2023-10-19T07:22:55;31.27;;;24.17;;
39078;SDS011;24829;49.208;12.080;2023-10-19T07:25:22;44.83;;;30.92;;
39078;SDS011;24829;49.208;12.080;2023-10-19T07:27:50;66.13;;;46.00;;
39078;SDS011;24829;49.208;12.080;2023-10-19T07:30:17;39.53;;;28.42;;
39078;SDS011;24829;49.208;12.080;2023-10-19T07:32:47;40.65;;;31.23;;
39078;SDS011;24829;49.208;12.080;2023-10-19T07:35:16;37.33;;;30.60;;
39078;SDS011;24829;49.208;12.080;2023-10-19T07:37:44;32.50;;;24.80;;
39078;SDS011;24829;49.208;12.080;2023-10-19T07:40:09;36.42;;;24.50;;
39078;SDS011;24829;49.208;12.080;2023-10-19T07:42:39;29.27;;;22.73;;
39078;SDS011;24829;49.208;12.080;2023-10-19T07:45:05;27.33;;;22.20;;
39078;SDS011;24829;49.208;12.080;2023-10-19T07:47:35;30.10;;;21.90;;
39078;SDS011;24829;49.208;12.080;2023-10-19T07:50:00;31.73;;;23.77;;
39078;SDS011;24829;49.208;12.080;2023-10-19T07:52:28;29.40;;;22.77;;
39078;SDS011;24829;49.208;12.080;2023-10-19T07:54:53;28.67;;;22.60;;
39078;SDS011;24829;49.208;12.080;2023-10-19T07:57:19;29.73;;;21.25;;
39078;SDS011;24829;49.208;12.080;2023-10-19T07:59:45;26.70;;;21.52;;
39078;SDS011;24829;49.208;12.080;2023-10-19T08:02:12;28.80;;;21.35;;
39078;SDS011;24829;49.208;12.080;2023-10-19T08:04:38;32.00;;;21.73;;
39078;SDS011;24829;49.208;12.080;2023-10-19T08:07:04;27.75;;;21.40;;
39078;SDS011;24829;49.208;12.080;2023-10-19T08:09:29;31.92;;;23.10;;
39078;SDS011;24829;49.208;12.080;2023-10-19T08:11:57;27.65;;;22.10;;
39078;SDS011;24829;49.208;12.080;2023-10-19T08:14:27;27.77;;;22.05;;
39078;SDS011;24829;49.208;12.080;2023-10-19T08:16:53;29.92;;;21.90;;
39078;SDS011;24829;49.208;12.080;2023-10-19T08:19:18;28.00;;;22.13;;
39078;SDS011;24829;49.208;12.080;2023-10-19T08:21:45;24.85;;;20.30;;
39078;SDS011;24829;49.208;12.080;2023-10-19T08:24:12;27.67;;;21.33;;
39078;SDS011;24829;49.208;12.080;2023-10-19T08:26:42;30.55;;;21.00;;
39078;SDS011;24829;49.208;12.080;2023-10-19T08:29:07;27.25;;;21.13;;
39078;SDS011;24829;49.208;12.080;2023-10-19T08:31:38;27.33;;;20.70;;
39078;SDS011;24829;49.208;12.080;2023-10-19T08:34:05;28.92;;;22.13;;
39078;SDS011;24829;49.208;12.080;2023-10-19T08:36:31;28.63;;;21.58;;
39078;SDS011;24829;49.208;12.080;2023-10-19T08:38:56;27.77;;;21.65;;
39078;SDS011;24829;49.208;12.080;2023-10-19T08:41:22;28.73;;;20.08;;
39078;SDS011;24829;49.208;12.080;2023-10-19T08:43:48;26.38;;;20.67;;
39078;SDS011;24829;49.208;12.080;2023-10-19T08:46:15;27.60;;;22.02;;
39078;SDS011;24829;49.208;12.080;2023-10-19T08:48:41;28.30;;;21.17;;
39078;SDS011;24829;49.208;12.080;2023-10-19T08:51:10;30.70;;;21.90;;
39078;SDS011;24829;49.208;12.080;2023-10-19T08:53:39;36.55;;;22.15;;
39078;SDS011;24829;49.208;12.080;2023-10-19T08:56:06;32.97;;;22.27;;
39078;SDS011;24829;49.208;12.080;2023-10-19T08:58:32;30.48;;;22.00;;
39078;SDS011;24829;49.208;12.080;2023-10-19T09:00:58;27.17;;;21.45;;
39078;SDS011;24829;49.208;12.080;2023-10-19T09:03:31;28.70;;;22.27;;
39078;SDS011;24829;49.208;12.080;2023-10-19T09:05:57;28.42;;;20.85;;
39078;SDS011;24829;49.208;12.080;2023-10-19T09:08:25;31.27;;;22.85;;
39078;SDS011;24829;49.208;12.080;2023-10-19T09:11:05;28.15;;;21.50;;
39078;SDS011;24829;49.208;12.080;2023-10-19T09:13:47;26.90;;;21.40;;
39078;SDS011;24829;49.208;12.080;2023-10-19T09:16:18;28.25;;;20.65;;
39078;SDS011;24829;49.208;12.080;2023-10-19T09:18:46;27.60;;;20.85;;
39078;SDS011;24829;49.208;12.080;2023-10-19T09:21:15;28.92;;;21.90;;
39078;SDS011;24829;49.208;12.080;2023-10-19T09:23:54;34.63;;;23.08;;
39078;SDS011;24829;49.208;12.080;2023-10-19T09:26:21;35.15;;;22.55;;
39078;SDS011;24829;49.208;12.080;2023-10-19T09:28:48;26.55;;;21.55;;
39078;SDS011;24829;49.208;12.080;2023-10-19T09:31:15;28.75;;;21.58;;
39078;SDS011;24829;49.208;12.080;2023-10-19T09:33:42;27.85;;;21.60;;
39078;SDS011;24829;49.208;12.080;2023-10-19T09:36:10;29.00;;;21.58;;
39078;SDS011;24829;49.208;12.080;2023-10-19T09:38:43;26.95;;;20.63;;
39078;SDS011;24829;49.208;12.080;2023-10-19T09:41:25;25.60;;;19.95;;
39078;SDS011;24829;49.208;12.080;2023-10-19T09:43:53;31.55;;;21.95;;
39078;SDS011;24829;49.208;12.080;2023-10-19T09:46:28;27.55;;;22.15;;
39078;SDS011;24829;49.208;12.080;2023-10-19T09:48:56;29.65;;;21.85;;
39078;SDS011;24829;49.208;12.080;2023-10-19T09:51:22;25.67;;;20.85;;
39078;SDS011;24829;49.208;12.080;2023-10-19T09:53:51;27.83;;;21.25;;
39078;SDS011;24829;49.208;12.080;2023-10-19T09:56:38;28.75;;;21.25;;
39078;SDS011;24829;49.208;12.080;2023-10-19T09:59:11;27.20;;;20.00;;
39078;SDS011;24829;49.208;12.080;2023-10-19T10:02:06;30.45;;;22.30;;
39078;SDS011;24829;49.208;12.080;2023-10-19T10:04:32;30.48;;;22.15;;
39078;SDS011;24829;49.208;12.080;2023-10-19T10:07:00;25.67;;;20.98;;
39078;SDS011;24829;49.208;12.080;2023-10-19T10:09:26;37.05;;;21.60;;
39078;SDS011;24829;49.208;12.080;2023-10-19T10:11:52;30.15;;;21.98;;
39078;SDS011;24829;49.208;12.080;2023-10-19T10:14:25;33.08;;;22.38;;
39078;SDS011;24829;49.208;12.080;2023-10-19T10:17:04;29.13;;;22.02;;
39078;SDS011;24829;49.208;12.080;2023-10-19T10:19:34;28.48;;;20.88;;
39078;SDS011;24829;49.208;12.080;2023-10-19T10:22:03;30.60;;;22.83;;
39078;SDS011;24829;49.208;12.080;2023-10-19T10:24:41;30.02;;;22.05;;
39078;SDS011;24829;49.208;12.080;2023-10-19T10:27:07;33.00;;;22.75;;
39078;SDS011;24829;49.208;12.080;2023-10-19T10:29:34;25.38;;;21.60;;
39078;SDS011;24829;49.208;12.080;2023-10-19T10:32:00;28.30;;;21.88;;
39078;SDS011;24829;49.208;12.080;2023-10-19T10:37:10;37.05;;;22.70;;
39078;SDS011;24829;49.208;12.080;2023-10-19T10:39:38;31.85;;;23.73;;
39078;SDS011;24829;49.208;12.080;2023-10-19T10:42:06;28.58;;;24.45;;
39078;SDS011;24829;49.208;12.080;2023-10-19T10:44:40;31.60;;;23.92;;
39078;SDS011;24829;49.208;12.080;2023-10-19T10:47:19;31.13;;;24.55;;
39078;SDS011;24829;49.208;12.080;2023-10-19T10:54:50;30.10;;;23.50;;
39078;SDS011;24829;49.208;12.080;2023-10-19T10:57:15;32.78;;;25.67;;
39078;SDS011;24829;49.208;12.080;2023-10-19T10:59:41;32.50;;;25.52;;
39078;SDS011;24829;49.208;12.080;2023-10-19T11:02:19;32.38;;;24.25;;
39078;SDS011;24829;49.208;12.080;2023-10-19T11:04:46;34.70;;;25.67;;
39078;SDS011;24829;49.208;12.080;2023-10-19T11:07:18;34.60;;;25.17;;
39078;SDS011;24829;49.208;12.080;2023-10-19T11:09:48;31.70;;;26.05;;
39078;SDS011;24829;49.208;12.080;2023-10-19T11:12:14;33.33;;;26.00;;
39078;SDS011;24829;49.208;12.080;2023-10-19T11:14:57;34.45;;;26.50;;
39078;SDS011;24829;49.208;12.080;2023-10-19T11:17:24;34.00;;;26.08;;
39078;SDS011;24829;49.208;12.080;2023-10-19T11:19:53;34.47;;;27.02;;
39078;SDS011;24829;49.208;12.080;2023-10-19T11:22:21;36.10;;;27.98;;
39078;SDS011;24829;49.208;12.080;2023-10-19T11:24:47;35.58;;;27.90;;
39078;SDS011;24829;49.208;12.080;2023-10-19T11:27:12;32.58;;;26.10;;
39078;SDS011;24829;49.208;12.080;2023-10-19T11:29:38;37.05;;;27.98;;
39078;SDS011;24829;49.208;12.080;2023-10-19T11:32:04;35.97;;;27.15;;
39078;SDS011;24829;49.208;12.080;2023-10-19T11:34:30;35.00;;;27.85;;
39078;SDS011;24829;49.208;12.080;2023-10-19T11:36:59;30.98;;;25.27;;
39078;SDS011;24829;49.208;12.080;2023-10-19T11:39:25;35.58;;;27.25;;
39078;SDS011;24829;49.208;12.080;2023-10-19T11:41:51;38.70;;;26.92;;
39078;SDS011;24829;49.208;12.080;2023-10-19T11:44:18;35.15;;;26.08;;
39078;SDS011;24829;49.208;12.080;2023-10-19T11:46:44;36.90;;;26.88;;
39078;SDS011;24829;49.208;12.080;2023-10-19T11:49:10;36.65;;;26.65;;
39078;SDS011;24829;49.208;12.080;2023-10-19T11:51:36;38.90;;;26.25;;
39078;SDS011;24829;49.208;12.080;2023-10-19T11:54:04;34.75;;;26.52;;
39078;SDS011;24829;49.208;12.080;2023-10-19T11:56:31;35.10;;;26.25;;
39078;SDS011;24829;49.208;12.080;2023-10-19T11:58:57;32.35;;;26.23;;
39078;SDS011;24829;49.208;12.080;2023-10-19T12:01:22;34.00;;;26.33;;
39078;SDS011;24829;49.208;12.080;2023-10-19T12:03:50;33.55;;;26.25;;
39078;SDS011;24829;49.208;12.080;2023-10-19T12:06:16;37.50;;;26.90;;
39078;SDS011;24829;49.208;12.080;2023-10-19T12:08:45;31.58;;;23.70;;
39078;SDS011;24829;49.208;12.080;2023-10-19T12:11:11;37.38;;;25.83;;
39078;SDS011;24829;49.208;12.080;2023-10-19T12:13:47;32.40;;;25.42;;
39078;SDS011;24829;49.208;12.080;2023-10-19T12:16:14;32.25;;;24.15;;
39078;SDS011;24829;49.208;12.080;2023-10-19T12:18:40;41.95;;;32.05;;
39078;SDS011;24829;49.208;12.080;2023-10-19T12:21:07;30.67;;;25.08;;
39078;SDS011;24829;49.208;12.080;2023-10-19T12:23:36;33.05;;;23.70;;
39078;SDS011;24829;49.208;12.080;2023-10-19T12:26:05;29.90;;;22.75;;
39078;SDS011;24829;49.208;12.080;2023-10-19T12:28:36;30.13;;;23.40;;
39078;SDS011;24829;49.208;12.080;2023-10-19T12:31:03;29.65;;;23.48;;
39078;SDS011;24829;49.208;12.080;2023-10-19T12:33:30;30.23;;;23.52;;
39078;SDS011;24829;49.208;12.080;2023-10-19T12:35:56;29.00;;;23.15;;
39078;SDS011;24829;49.208;12.080;2023-10-19T12:38:22;30.25;;;23.65;;
39078;SDS011;24829;49.208;12.080;2023-10-19T12:40:49;28.50;;;22.08;;
39078;SDS011;24829;49.208;12.080;2023-10-19T12:43:16;29.05;;;23.33;;
39078;SDS011;24829;49.208;12.080;2023-10-19T12:45:47;32.23;;;22.33;;
39078;SDS011;24829;49.208;12.080;2023-10-19T12:48:15;26.73;;;21.38;;
39078;SDS011;24829;49.208;12.080;2023-10-19T12:50:42;30.00;;;22.73;;
39078;SDS011;24829;49.208;12.080;2023-10-19T12:53:08;29.58;;;22.98;;
39078;SDS011;24829;49.208;12.080;2023-10-19T12:55:34;27.63;;;21.70;;
39078;SDS011;24829;49.208;12.080;2023-10-19T12:58:02;27.15;;;21.77;;
39078;SDS011;24829;49.208;12.080;2023-10-19T13:00:34;31.98;;;24.58;;
39078;SDS011;24829;49.208;12.080;2023-10-19T13:03:07;26.90;;;22.43;;
39078;SDS011;24829;49.208;12.080;2023-10-19T13:05:33;28.33;;;23.55;;
39078;SDS011;24829;49.208;12.080;2023-10-19T13:08:00;28.05;;;22.33;;
39078;SDS011;24829;49.208;12.080;2023-10-19T13:10:30;28.05;;;23.17;;
39078;SDS011;24829;49.208;12.080;2023-10-19T13:12:57;32.75;;;24.02;;
39078;SDS011;24829;49.208;12.080;2023-10-19T13:15:32;31.38;;;25.92;;
39078;SDS011;24829;49.208;12.080;2023-10-19T13:17:59;30.10;;;24.35;;
39078;SDS011;24829;49.208;12.080;2023-10-19T13:20:29;39.40;;;26.17;;
39078;SDS011;24829;49.208;12.080;2023-10-19T13:22:59;29.77;;;24.08;;
39078;SDS011;24829;49.208;12.080;2023-10-19T13:25:26;32.28;;;24.52;;
39078;SDS011;24829;49.208;12.080;2023-10-19T13:28:05;34.83;;;25.35;;
39078;SDS011;24829;49.208;12.080;2023-10-19T13:30:35;37.72;;;28.20;;
39078;SDS011;24829;49.208;12.080;2023-10-19T13:33:03;55.83;;;39.75;;
39078;SDS011;24829;49.208;12.080;2023-10-19T13:35:29;42.38;;;31.90;;
39078;SDS011;24829;49.208;12.080;2023-10-19T13:37:55;34.00;;;26.15;;
39078;SDS011;24829;49.208;12.080;2023-10-19T13:40:21;34.17;;;26.83;;
39078;SDS011;24829;49.208;12.080;2023-10-19T13:42:48;31.92;;;25.63;;
39078;SDS011;24829;49.208;12.080;2023-10-19T13:45:14;32.45;;;27.00;;
39078;SDS011;24829;49.208;12.080;2023-10-19T13:47:39;38.50;;;29.08;;
39078;SDS011;24829;49.208;12.080;2023-10-19T13:50:05;33.55;;;27.00;;
39078;SDS011;24829;49.208;12.080;2023-10-19T13:52:32;33.22;;;26.20;;
39078;SDS011;24829;49.208;12.080;2023-10-19T13:54:59;36.15;;;26.15;;
39078;SDS011;24829;49.208;12.080;2023-10-19T13:57:24;34.08;;;27.25;;
39078;SDS011;24829;49.208;12.080;2023-10-19T13:59:50;35.92;;;27.45;;
39078;SDS011;24829;49.208;12.080;2023-10-19T14:02:16;34.30;;;27.27;;
39078;SDS011;24829;49.208;12.080;2023-10-19T14:04:41;40.95;;;28.45;;
39078;SDS011;24829;49.208;12.080;2023-10-19T14:07:07;37.65;;;29.05;;
39078;SDS011;24829;49.208;12.080;2023-10-19T14:09:33;37.28;;;28.85;;
39078;SDS011;24829;49.208;12.080;2023-10-19T14:11:58;37.78;;;28.67;;
39078;SDS011;24829;49.208;12.080;2023-10-19T14:14:24;36.05;;;30.13;;
39078;SDS011;24829;49.208;12.080;2023-10-19T14:16:49;42.28;;;31.63;;
39078;SDS011;24829;49.208;12.080;2023-10-19T14:19:15;45.65;;;31.63;;
39078;SDS011;24829;49.208;12.080;2023-10-19T14:21:42;44.13;;;30.27;;
39078;SDS011;24829;49.208;12.080;2023-10-19T14:24:09;41.30;;;30.95;;
39078;SDS011;24829;49.208;12.080;2023-10-19T14:26:35;51.20;;;35.55;;
39078;SDS011;24829;49.208;12.080;2023-10-19T14:29:00;41.42;;;34.35;;
39078;SDS011;24829;49.208;12.080;2023-10-19T14:31:26;54.70;;;39.58;;